createdAt,value
2022-10-31T00:04:26.835Z,98.65
2022-10-31T00:10:28.707Z,98.50
2022-10-31T00:16:31.322Z,98.87
2022-10-31T00:28:53.102Z,98.08
2022-10-31T00:36:00.765Z,99.66
2022-10-31T00:42:02.777Z,100.00
2022-10-31T00:48:48.254Z,100.00
2022-10-31T00:54:50.303Z,99.96
2022-10-31T01:00:57.920Z,99.50
2022-10-31T01:06:59.994Z,100.00
2022-10-31T01:13:02.100Z,100.00
2022-10-31T01:19:04.171Z,99.50
2022-10-31T01:25:07.218Z,99.15
2022-10-31T01:31:10.409Z,98.97
2022-10-31T01:37:12.499Z,100.00
2022-10-31T01:43:15.224Z,100.00
2022-10-31T01:49:25.767Z,100.00
2022-10-31T01:55:42.486Z,100.00
2022-10-31T02:01:46.803Z,100.00
2022-10-31T02:08:28.057Z,100.00
2022-10-31T02:14:32.219Z,100.00
2022-10-31T02:21:40.610Z,100.00
2022-10-31T02:28:08.525Z,100.00
2022-10-31T02:34:20.105Z,100.00
2022-10-31T02:41:11.199Z,100.00
2022-10-31T02:47:55.418Z,100.00
2022-10-31T02:53:58.900Z,100.00
2022-10-31T03:00:07.332Z,100.00
2022-10-31T03:06:37.267Z,100.00
2022-10-31T03:13:07.362Z,100.00
2022-10-31T03:19:18.925Z,100.00
2022-10-31T03:25:20.924Z,100.00
2022-10-31T03:31:30.428Z,100.00
2022-10-31T03:37:54.963Z,100.00
2022-10-31T03:44:09.498Z,100.00
2022-10-31T03:50:14.442Z,100.00
2022-10-31T03:56:40.600Z,100.00
2022-10-31T04:02:57.973Z,100.00
2022-10-31T04:09:05.670Z,100.00
2022-10-31T04:15:10.602Z,100.00
2022-10-31T04:21:12.495Z,100.00
2022-10-31T04:27:14.355Z,100.00
2022-10-31T04:33:16.888Z,100.00
2022-10-31T04:39:22.751Z,100.00
2022-10-31T04:45:28.704Z,100.00
2022-10-31T04:51:30.595Z,100.00
2022-10-31T04:57:32.473Z,100.00
2022-10-31T05:03:34.381Z,100.00
2022-10-31T05:09:36.303Z,100.00
2022-10-31T05:15:38.366Z,100.00
2022-10-31T05:21:40.287Z,100.00
2022-10-31T05:27:48.441Z,100.00
2022-10-31T05:33:50.446Z,100.00
2022-10-31T05:39:52.330Z,100.00
2022-10-31T05:45:57.758Z,100.00
2022-10-31T05:51:59.699Z,100.00
2022-10-31T05:58:02.184Z,100.00
2022-10-31T06:04:04.307Z,100.00
2022-10-31T06:10:09.041Z,100.00
2022-10-31T06:16:10.923Z,100.00
2022-10-31T06:22:33.921Z,100.00
2022-10-31T06:28:53.286Z,100.00
2022-10-31T06:34:55.396Z,100.00
2022-10-31T06:49:49.533Z,100.00
2022-10-31T06:55:51.520Z,100.00
2022-10-31T07:01:56.731Z,100.00
2022-10-31T07:08:05.741Z,100.00
2022-10-31T07:14:13.522Z,100.00
2022-10-31T07:20:18.872Z,100.00
2022-10-31T07:26:20.966Z,100.00
2022-10-31T07:32:23.367Z,100.00
2022-10-31T07:38:25.233Z,100.00
2022-10-31T07:44:27.134Z,100.00
2022-10-31T07:50:35.265Z,100.00
2022-10-31T07:56:37.158Z,100.00
2022-10-31T08:02:39.302Z,100.00
2022-10-31T08:08:41.251Z,97.81
2022-10-31T08:14:43.278Z,98.89
2022-10-31T08:20:45.248Z,97.71
2022-10-31T08:26:48.299Z,98.21
2022-10-31T08:33:13.272Z,97.46
2022-10-31T08:39:15.185Z,97.16
2022-10-31T08:45:17.081Z,97.79
2022-10-31T08:51:20.189Z,97.56
2022-10-31T08:57:22.127Z,97.77
2022-10-31T09:03:30.165Z,97.67
2022-10-31T09:09:32.061Z,97.42
2022-10-31T09:22:26.328Z,96.43
2022-10-31T09:28:28.252Z,95.79
2022-10-31T09:34:30.843Z,93.99
2022-10-31T09:40:38.731Z,92.39
2022-10-31T09:47:05.657Z,91.09
2022-10-31T09:53:18.487Z,90.62
2022-10-31T09:59:36.062Z,90.63
2022-10-31T10:05:55.670Z,88.06
2022-10-31T10:12:15.914Z,87.99
2022-10-31T10:18:38.909Z,87.60
2022-10-31T10:24:56.040Z,83.89
2022-10-31T10:31:15.825Z,85.86
2022-10-31T10:45:15.579Z,84.68
2022-10-31T10:52:02.803Z,83.66
2022-10-31T10:58:12.053Z,81.81
2022-10-31T11:04:35.370Z,80.33
2022-10-31T11:10:37.468Z,80.32
2022-10-31T11:16:48.572Z,79.38
2022-10-31T11:23:21.436Z,79.28
2022-10-31T11:29:26.743Z,78.77
2022-10-31T11:35:32.754Z,78.96
2022-10-31T11:41:39.714Z,77.54
2022-10-31T11:47:52.940Z,77.03
2022-10-31T11:54:06.000Z,75.22
2022-10-31T12:00:34.752Z,74.94
2022-10-31T12:06:43.626Z,72.08
2022-10-31T12:20:31.542Z,71.70
2022-10-31T12:26:40.760Z,69.13
2022-10-31T12:33:20.195Z,67.72
2022-10-31T12:39:26.793Z,64.37
2022-10-31T12:45:49.662Z,66.92
2022-10-31T12:52:06.384Z,68.60
2022-10-31T12:58:32.459Z,68.53
2022-10-31T13:05:03.324Z,69.99
2022-10-31T13:11:22.491Z,70.58
2022-10-31T13:17:42.675Z,70.00
2022-10-31T13:23:51.205Z,70.43
2022-10-31T13:29:59.746Z,71.22
2022-10-31T13:36:35.429Z,73.05
2022-10-31T13:43:15.580Z,75.02
2022-10-31T13:49:29.457Z,75.99
2022-10-31T13:55:51.243Z,76.72
2022-10-31T14:02:01.368Z,77.21
2022-10-31T14:08:07.515Z,77.62
2022-10-31T14:14:13.662Z,78.56
2022-10-31T14:20:15.827Z,80.10
2022-10-31T14:26:22.184Z,81.42
2022-10-31T14:32:28.694Z,80.32
2022-10-31T14:38:49.749Z,80.89
2022-10-31T14:45:15.887Z,81.95
2022-10-31T14:51:26.348Z,81.65
2022-10-31T14:57:37.800Z,83.10
2022-10-31T15:04:10.122Z,81.81
2022-10-31T15:10:33.369Z,82.89
2022-10-31T15:16:44.252Z,82.94
2022-10-31T15:22:46.969Z,83.03
2022-10-31T15:29:04.706Z,83.93
2022-10-31T15:35:11.684Z,83.86
2022-10-31T15:41:35.820Z,84.37
2022-10-31T15:47:38.705Z,85.59
2022-10-31T15:53:50.826Z,86.43
2022-10-31T15:59:53.933Z,87.63
2022-10-31T16:06:02.874Z,88.15
2022-10-31T16:12:04.867Z,88.32
2022-10-31T16:18:12.361Z,88.30
2022-10-31T16:24:31.626Z,88.68
2022-10-31T16:30:46.800Z,88.64
2022-10-31T16:37:04.443Z,87.72
2022-10-31T16:43:10.127Z,89.12
2022-10-31T16:49:12.716Z,89.55
2022-10-31T16:55:16.731Z,88.78
2022-10-31T17:01:18.794Z,88.87
2022-10-31T17:07:20.731Z,89.93
2022-10-31T17:13:27.675Z,90.17
2022-10-31T17:19:29.814Z,91.39
2022-10-31T17:25:32.143Z,91.43
2022-10-31T17:31:36.708Z,91.66
2022-10-31T17:37:39.922Z,91.58
2022-10-31T17:43:41.995Z,92.26
2022-10-31T17:49:43.916Z,93.38
2022-10-31T17:55:45.991Z,93.51
2022-10-31T18:01:48.036Z,94.22
2022-10-31T18:07:51.233Z,95.16
2022-10-31T18:13:57.599Z,95.91
2022-10-31T18:19:59.555Z,96.56
2022-10-31T18:26:01.640Z,96.99
2022-10-31T18:32:09.062Z,96.77
2022-10-31T18:38:28.043Z,97.09
2022-10-31T18:44:30.514Z,97.83
2022-10-31T18:50:32.653Z,98.33
2022-10-31T18:56:34.587Z,98.68
2022-10-31T19:02:36.779Z,99.54
2022-10-31T19:08:39.600Z,99.53
2022-10-31T19:14:41.550Z,100.00
2022-10-31T19:20:44.000Z,99.13
2022-10-31T19:26:46.069Z,100.00
2022-10-31T19:32:48.647Z,100.00
2022-10-31T19:38:54.244Z,100.00
2022-10-31T19:44:56.664Z,100.00
2022-10-31T19:51:08.279Z,100.00
2022-10-31T19:57:48.918Z,100.00
2022-10-31T20:04:34.311Z,100.00
2022-10-31T20:10:36.394Z,100.00
2022-10-31T20:16:39.956Z,99.43
2022-10-31T20:22:42.433Z,99.64
2022-10-31T20:28:48.579Z,99.54
2022-10-31T20:42:42.400Z,98.84
2022-10-31T20:48:44.744Z,99.73
2022-10-31T20:54:57.398Z,100.00
2022-10-31T21:07:17.493Z,100.00
2022-10-31T21:13:20.088Z,100.00
2022-10-31T21:19:22.123Z,100.00
2022-10-31T21:25:24.117Z,100.00
2022-10-31T21:31:34.812Z,100.00
2022-10-31T21:37:36.964Z,100.00
2022-10-31T21:43:41.894Z,100.00
2022-10-31T21:49:44.702Z,100.00
2022-10-31T21:56:04.283Z,100.00
2022-10-31T22:02:10.246Z,100.00
2022-10-31T22:08:12.865Z,100.00
2022-10-31T22:14:16.076Z,100.00
2022-10-31T22:20:18.095Z,100.00
2022-10-31T22:26:20.895Z,100.00
2022-10-31T22:32:23.502Z,100.00
2022-10-31T22:44:42.917Z,100.00
2022-10-31T22:50:44.939Z,100.00
2022-10-31T22:56:47.185Z,100.00
2022-10-31T23:02:49.054Z,100.00
2022-10-31T23:08:52.407Z,100.00
2022-10-31T23:14:54.341Z,100.00
2022-10-31T23:20:56.315Z,100.00
2022-10-31T23:27:12.245Z,100.00
2022-10-31T23:33:14.196Z,100.00
2022-10-31T23:39:18.805Z,100.00
2022-10-31T23:45:23.356Z,100.00
2022-10-31T23:51:25.281Z,100.00
2022-10-31T23:57:27.214Z,100.00
